createdAt,value
2024-03-03T00:02:06.585Z,15.75
2024-03-03T00:04:35.192Z,16.43
2024-03-03T00:07:04.651Z,16.70
2024-03-03T00:09:34.433Z,16.92
2024-03-03T00:12:02.979Z,16.48
2024-03-03T00:14:31.752Z,16.30
2024-03-03T00:17:05.358Z,14.93
2024-03-03T00:19:34.553Z,15.20
2024-03-03T00:22:06.072Z,15.65
2024-03-03T00:24:34.579Z,15.73
2024-03-03T00:27:03.108Z,14.82
2024-03-03T00:29:31.674Z,16.13
2024-03-03T00:32:04.521Z,15.38
2024-03-03T00:34:34.079Z,15.18
2024-03-03T00:37:02.548Z,16.52
2024-03-03T00:39:31.637Z,15.63
2024-03-03T00:42:00.097Z,15.23
2024-03-03T00:44:39.470Z,15.38
2024-03-03T00:47:13.906Z,14.55
2024-03-03T00:49:50.638Z,14.52
2024-03-03T00:52:22.274Z,16.02
2024-03-03T00:54:50.872Z,15.13
2024-03-03T00:57:19.592Z,14.70
2024-03-03T00:59:48.099Z,14.93
2024-03-03T01:02:20.985Z,14.93
2024-03-03T01:04:54.718Z,14.88
2024-03-03T01:07:23.560Z,14.03
2024-03-03T01:09:52.272Z,14.73
2024-03-03T01:12:26.181Z,13.88
2024-03-03T01:14:54.658Z,14.27
2024-03-03T01:17:24.731Z,14.77
2024-03-03T01:19:53.304Z,46.77
2024-03-03T01:22:26.587Z,32.75
2024-03-03T01:24:58.264Z,24.30
2024-03-03T01:27:42.941Z,24.58
2024-03-03T01:30:12.526Z,38.60
2024-03-03T01:32:42.031Z,24.87
2024-03-03T01:35:10.778Z,34.95
2024-03-03T01:37:39.224Z,23.10
2024-03-03T01:40:08.482Z,18.58
2024-03-03T01:42:36.972Z,38.70
2024-03-03T01:45:05.778Z,27.47
2024-03-03T01:47:35.742Z,29.25
2024-03-03T01:50:05.922Z,21.73
2024-03-03T01:52:34.673Z,24.35
2024-03-03T01:55:03.217Z,30.95
2024-03-03T01:57:32.120Z,28.47
2024-03-03T02:00:01.665Z,28.75
2024-03-03T02:02:41.850Z,17.48
2024-03-03T02:05:12.011Z,14.57
2024-03-03T02:07:40.487Z,35.83
2024-03-03T02:10:10.747Z,36.90
2024-03-03T02:12:41.579Z,51.72
2024-03-03T02:15:10.364Z,21.58
2024-03-03T02:17:39.034Z,16.02
2024-03-03T02:20:10.307Z,14.80
2024-03-03T02:22:39.965Z,18.07
2024-03-03T02:25:08.871Z,20.10
2024-03-03T02:27:37.762Z,26.27
2024-03-03T02:30:06.720Z,17.08
2024-03-03T02:32:35.138Z,17.73
2024-03-03T02:35:03.930Z,48.37
2024-03-03T02:37:32.395Z,31.65
2024-03-03T02:40:04.698Z,37.65
2024-03-03T02:42:36.361Z,27.08
2024-03-03T02:45:14.925Z,14.50
2024-03-03T02:47:44.089Z,14.07
2024-03-03T02:50:12.866Z,15.40
2024-03-03T02:52:41.271Z,14.25
2024-03-03T02:55:11.273Z,15.18
2024-03-03T02:57:43.086Z,14.73
2024-03-03T03:00:14.987Z,14.37
2024-03-03T03:02:43.495Z,14.68
2024-03-03T03:05:12.041Z,15.15
2024-03-03T03:07:41.031Z,15.32
2024-03-03T03:10:11.155Z,15.18
2024-03-03T03:12:39.748Z,15.37
2024-03-03T03:15:08.718Z,14.13
2024-03-03T03:17:37.174Z,15.05
2024-03-03T03:20:06.191Z,14.80
2024-03-03T03:22:34.829Z,14.57
2024-03-03T03:25:03.766Z,14.53
2024-03-03T03:27:33.546Z,14.15
2024-03-03T03:30:01.971Z,15.18
2024-03-03T03:32:35.147Z,15.40
2024-03-03T03:35:04.963Z,14.05
2024-03-03T03:37:33.468Z,14.70
2024-03-03T03:40:59.178Z,15.15
2024-03-03T03:43:27.194Z,14.48
2024-03-03T03:45:56.747Z,14.77
2024-03-03T03:48:30.583Z,15.45
2024-03-03T03:50:59.192Z,14.20
2024-03-03T03:53:27.782Z,14.88
2024-03-03T03:56:07.430Z,13.80
2024-03-03T03:58:37.256Z,14.18
2024-03-03T04:01:05.981Z,14.35
2024-03-03T04:03:34.442Z,14.97
2024-03-03T04:06:03.072Z,14.48
2024-03-03T04:08:31.511Z,14.88
2024-03-03T04:11:00.382Z,14.02
2024-03-03T04:13:28.836Z,14.82
2024-03-03T04:15:58.603Z,15.17
2024-03-03T04:18:31.833Z,13.63
2024-03-03T04:21:00.413Z,14.32
2024-03-03T04:23:30.039Z,14.35
2024-03-03T04:25:58.460Z,14.57
2024-03-03T04:28:27.529Z,14.07
2024-03-03T04:30:55.984Z,13.73
2024-03-03T04:33:25.710Z,13.95
2024-03-03T04:35:54.163Z,14.20
2024-03-03T04:38:22.620Z,14.30
2024-03-03T04:40:51.059Z,14.53
2024-03-03T04:43:19.578Z,13.85
2024-03-03T04:45:47.982Z,13.27
2024-03-03T04:48:16.677Z,12.75
2024-03-03T04:50:48.102Z,14.13
2024-03-03T04:53:17.022Z,13.30
2024-03-03T04:55:45.490Z,12.90
2024-03-03T04:58:14.018Z,13.05
2024-03-03T05:00:42.600Z,13.02
2024-03-03T05:03:11.073Z,13.25
2024-03-03T05:05:39.716Z,11.87
2024-03-03T05:08:10.870Z,12.23
2024-03-03T05:10:39.696Z,12.60
2024-03-03T05:13:08.209Z,12.68
2024-03-03T05:15:36.637Z,13.27
2024-03-03T05:18:05.784Z,12.33
2024-03-03T05:20:34.227Z,12.63
2024-03-03T05:23:02.679Z,12.45
2024-03-03T05:25:32.163Z,12.98
2024-03-03T05:28:00.613Z,12.35
2024-03-03T05:30:29.312Z,11.27
2024-03-03T05:32:57.853Z,11.15
2024-03-03T05:35:26.293Z,12.20
2024-03-03T05:37:54.686Z,12.23
2024-03-03T05:40:23.160Z,12.02
2024-03-03T05:42:53.151Z,13.90
2024-03-03T05:45:21.779Z,14.10
2024-03-03T05:47:50.275Z,14.05
2024-03-03T05:50:18.818Z,12.90
2024-03-03T05:52:47.233Z,12.38
2024-03-03T05:55:15.720Z,12.07
2024-03-03T05:57:44.169Z,12.32
2024-03-03T06:00:15.682Z,10.80
2024-03-03T06:02:44.115Z,11.05
2024-03-03T06:05:12.518Z,12.77
2024-03-03T06:07:40.947Z,13.87
2024-03-03T06:10:09.772Z,11.68
2024-03-03T06:12:38.310Z,12.13
2024-03-03T06:15:07.163Z,10.52
2024-03-03T06:17:39.140Z,10.70
2024-03-03T06:20:11.758Z,11.33
2024-03-03T06:22:40.274Z,11.25
2024-03-03T06:25:10.352Z,11.82
2024-03-03T06:27:38.824Z,9.95
2024-03-03T06:30:10.610Z,10.80
2024-03-03T06:32:40.375Z,10.27
2024-03-03T06:35:11.804Z,11.07
2024-03-03T06:37:40.357Z,10.43
2024-03-03T06:40:10.623Z,11.10
2024-03-03T06:42:41.067Z,11.18
2024-03-03T06:45:10.113Z,10.50
2024-03-03T06:47:38.779Z,12.13
2024-03-03T06:50:09.463Z,10.38
2024-03-03T06:52:37.859Z,10.82
2024-03-03T06:55:07.389Z,11.35
2024-03-03T06:57:35.841Z,11.10
2024-03-03T07:00:04.602Z,10.30
2024-03-03T07:02:46.907Z,10.55
2024-03-03T07:05:16.871Z,10.20
2024-03-03T07:07:45.379Z,10.05
2024-03-03T07:10:13.798Z,10.23
2024-03-03T07:12:42.289Z,11.00
2024-03-03T07:15:16.548Z,9.73
2024-03-03T07:17:45.191Z,9.43
2024-03-03T07:20:13.979Z,9.82
2024-03-03T07:22:43.815Z,10.00
2024-03-03T07:25:12.277Z,10.93
2024-03-03T07:27:40.753Z,9.73
2024-03-03T07:30:09.804Z,10.38
2024-03-03T07:32:39.605Z,10.73
2024-03-03T07:35:09.586Z,11.67
2024-03-03T07:37:39.103Z,10.70
2024-03-03T07:40:10.958Z,10.20
2024-03-03T07:42:39.424Z,10.60
2024-03-03T07:45:08.185Z,10.60
2024-03-03T07:47:36.603Z,11.43
2024-03-03T07:50:06.102Z,10.70
2024-03-03T07:52:34.559Z,10.43
2024-03-03T07:55:03.273Z,11.40
2024-03-03T07:57:33.161Z,10.88
2024-03-03T08:00:01.594Z,11.17
2024-03-03T08:02:30.088Z,10.68
2024-03-03T08:04:58.585Z,11.88
2024-03-03T08:07:27.275Z,12.25
2024-03-03T08:09:55.850Z,11.93
2024-03-03T08:12:25.002Z,11.73
2024-03-03T08:14:54.822Z,11.80
2024-03-03T08:17:23.332Z,11.80
2024-03-03T08:19:51.825Z,12.43
2024-03-03T08:22:20.315Z,12.05
2024-03-03T08:24:48.825Z,12.50
2024-03-03T08:27:17.246Z,12.23
2024-03-03T08:29:45.665Z,12.80
2024-03-03T08:32:15.470Z,12.38
2024-03-03T08:34:43.986Z,11.85
2024-03-03T08:37:12.475Z,12.43
2024-03-03T08:39:41.068Z,13.00
2024-03-03T08:42:09.559Z,12.52
2024-03-03T08:44:37.956Z,12.32
2024-03-03T08:47:06.591Z,11.95
2024-03-03T08:49:36.382Z,12.47
2024-03-03T08:52:07.047Z,12.13
2024-03-03T08:54:35.543Z,12.82
2024-03-03T08:57:05.713Z,12.43
2024-03-03T08:59:35.366Z,13.55
2024-03-03T09:02:03.984Z,12.67
2024-03-03T09:04:39.272Z,13.07
2024-03-03T09:07:10.108Z,11.98
2024-03-03T09:09:41.617Z,13.20
2024-03-03T09:12:11.942Z,13.40
2024-03-03T09:14:40.391Z,12.70
2024-03-03T09:17:08.852Z,12.77
2024-03-03T09:19:37.290Z,13.20
2024-03-03T09:22:06.140Z,13.20
2024-03-03T09:24:35.960Z,12.80
2024-03-03T09:27:04.396Z,12.43
2024-03-03T09:29:32.915Z,12.95
2024-03-03T09:32:01.371Z,11.77
2024-03-03T09:34:29.862Z,12.95
2024-03-03T09:36:59.753Z,12.23
2024-03-03T09:39:28.231Z,12.70
2024-03-03T09:42:00.014Z,12.60
2024-03-03T09:44:29.215Z,12.38
2024-03-03T09:46:59.306Z,12.45
2024-03-03T09:49:27.782Z,12.13
2024-03-03T09:51:59.165Z,13.23
2024-03-03T09:54:27.745Z,12.95
2024-03-03T09:57:00.179Z,12.38
2024-03-03T09:59:28.688Z,11.95
2024-03-03T10:01:58.073Z,12.00
2024-03-03T10:04:32.733Z,12.43
2024-03-03T10:07:02.368Z,12.32
2024-03-03T10:09:31.699Z,13.60
2024-03-03T10:12:01.731Z,12.35
2024-03-03T10:14:30.529Z,11.68
2024-03-03T10:16:58.957Z,11.37
2024-03-03T10:19:30.954Z,11.18
2024-03-03T10:22:00.687Z,12.27
2024-03-03T10:24:30.647Z,11.32
2024-03-03T10:27:01.879Z,11.82
2024-03-03T10:29:33.164Z,12.27
2024-03-03T10:32:09.813Z,11.52
2024-03-03T10:34:38.328Z,11.93
2024-03-03T10:37:06.818Z,12.00
2024-03-03T10:39:35.619Z,12.43
2024-03-03T10:42:10.205Z,10.67
2024-03-03T10:44:38.756Z,10.57
2024-03-03T10:47:08.349Z,11.48
2024-03-03T10:49:36.830Z,10.73
2024-03-03T10:52:05.541Z,11.30
2024-03-03T10:54:34.202Z,10.47
2024-03-03T10:57:03.243Z,10.05
2024-03-03T10:59:33.612Z,10.18
2024-03-03T11:02:03.692Z,10.00
2024-03-03T11:04:33.936Z,9.52
2024-03-03T11:07:05.260Z,10.10
2024-03-03T11:09:34.038Z,10.00
2024-03-03T11:12:03.096Z,10.68
2024-03-03T11:14:34.614Z,9.82
2024-03-03T11:17:07.135Z,10.23
2024-03-03T11:19:42.311Z,10.33
2024-03-03T11:22:20.171Z,9.55
2024-03-03T11:24:55.997Z,9.35
2024-03-03T11:27:25.651Z,9.43
2024-03-03T11:29:55.572Z,9.27
2024-03-03T11:32:25.557Z,9.80
2024-03-03T11:34:54.818Z,9.23
2024-03-03T11:37:24.083Z,9.70
2024-03-03T11:39:53.221Z,9.75
2024-03-03T11:42:22.305Z,10.85
2024-03-03T11:44:51.937Z,9.87
2024-03-03T11:47:25.036Z,9.80
2024-03-03T11:49:53.755Z,10.35
2024-03-03T11:52:42.846Z,10.77
2024-03-03T11:55:12.097Z,10.13
2024-03-03T11:57:42.230Z,10.27
2024-03-03T12:00:15.029Z,10.02
2024-03-03T12:02:45.156Z,9.55
2024-03-03T12:05:14.357Z,9.50
2024-03-03T12:07:44.596Z,10.10
2024-03-03T12:10:17.299Z,9.37
2024-03-03T12:12:49.574Z,9.10
2024-03-03T12:15:19.940Z,9.80
2024-03-03T12:17:54.318Z,8.00
2024-03-03T12:20:25.846Z,8.90
2024-03-03T12:22:54.870Z,7.57
2024-03-03T12:25:24.119Z,7.72
2024-03-03T12:27:54.143Z,8.68
2024-03-03T12:30:24.621Z,7.35
2024-03-03T12:32:57.368Z,8.07
2024-03-03T12:35:27.659Z,7.70
2024-03-03T12:37:56.674Z,6.20
2024-03-03T12:40:26.478Z,7.07
2024-03-03T12:42:55.183Z,6.47
2024-03-03T12:45:23.682Z,6.90
2024-03-03T12:47:52.128Z,6.63
2024-03-03T12:50:22.390Z,6.57
2024-03-03T12:52:59.339Z,6.85
2024-03-03T12:55:44.759Z,7.07
2024-03-03T12:58:14.351Z,6.10
2024-03-03T13:00:42.901Z,6.00
2024-03-03T13:03:11.481Z,6.03
2024-03-03T13:05:40.942Z,5.32
2024-03-03T13:08:09.611Z,5.68
2024-03-03T13:10:38.151Z,5.35
2024-03-03T13:13:06.771Z,5.33
2024-03-03T13:15:41.067Z,5.15
2024-03-03T13:18:17.024Z,5.47
2024-03-03T13:20:47.034Z,5.55
2024-03-03T13:23:16.694Z,4.80
2024-03-03T13:25:45.527Z,4.43
2024-03-03T13:28:14.912Z,5.07
2024-03-03T13:30:43.657Z,4.18
2024-03-03T13:33:12.250Z,3.95
2024-03-03T13:35:40.834Z,4.07
2024-03-03T13:38:10.645Z,4.00
2024-03-03T13:40:39.090Z,3.83
2024-03-03T13:43:07.568Z,3.53
2024-03-03T13:45:36.066Z,4.22
2024-03-03T13:48:13.137Z,3.90
2024-03-03T13:50:42.193Z,3.63
2024-03-03T13:53:12.292Z,3.60
2024-03-03T13:55:43.219Z,4.00
2024-03-03T13:58:11.810Z,3.67
2024-03-03T14:00:40.853Z,3.65
2024-03-03T14:03:09.632Z,3.60
2024-03-03T14:05:38.170Z,3.65
2024-03-03T14:08:07.659Z,3.75
2024-03-03T14:10:37.179Z,3.78
2024-03-03T14:13:06.796Z,3.88
2024-03-03T14:15:35.380Z,3.40
2024-03-03T14:18:03.948Z,3.33
2024-03-03T14:20:33.765Z,3.28
2024-03-03T14:23:04.822Z,3.30
2024-03-03T14:25:33.288Z,3.60
2024-03-03T14:28:09.673Z,2.73
2024-03-03T14:30:41.873Z,3.00
2024-03-03T14:33:10.541Z,2.80
2024-03-03T14:35:39.084Z,2.55
2024-03-03T14:38:07.647Z,2.50
2024-03-03T14:40:36.254Z,2.30
2024-03-03T14:43:07.500Z,2.22
2024-03-03T14:45:36.389Z,2.00
2024-03-03T14:48:05.263Z,2.10
2024-03-03T14:50:34.417Z,2.00
2024-03-03T14:53:05.232Z,1.67
2024-03-03T14:55:33.948Z,1.70
2024-03-03T14:58:02.445Z,1.70
2024-03-03T15:00:32.307Z,1.55
2024-03-03T15:03:00.717Z,2.25
2024-03-03T15:05:29.105Z,1.20
2024-03-03T15:07:57.471Z,1.10
2024-03-03T15:10:25.985Z,1.20
2024-03-03T15:12:54.455Z,1.20
2024-03-03T15:15:23.998Z,1.35
2024-03-03T15:17:53.998Z,1.30
2024-03-03T15:20:23.555Z,1.20
2024-03-03T15:22:52.159Z,1.25
2024-03-03T15:25:20.603Z,1.20
2024-03-03T15:27:49.107Z,1.13
2024-03-03T15:30:18.121Z,1.07
2024-03-03T15:32:46.742Z,1.20
2024-03-03T15:35:16.680Z,1.25
2024-03-03T15:37:45.249Z,1.13
2024-03-03T15:40:15.251Z,1.20
2024-03-03T15:42:43.834Z,1.00
2024-03-03T15:45:12.660Z,1.10
2024-03-03T15:47:41.389Z,1.30
2024-03-03T15:50:10.251Z,1.20
2024-03-03T15:52:40.170Z,1.30
2024-03-03T15:55:09.127Z,1.47
2024-03-03T15:57:37.736Z,1.23
2024-03-03T16:00:07.671Z,1.42
2024-03-03T16:02:38.211Z,1.98
2024-03-03T16:05:07.866Z,2.10
2024-03-03T16:07:36.934Z,1.40
2024-03-03T16:10:07.994Z,1.42
2024-03-03T16:12:36.528Z,1.90
2024-03-03T16:15:05.092Z,1.52
2024-03-03T16:17:33.614Z,1.42
2024-03-03T16:20:02.156Z,1.20
2024-03-03T16:22:31.055Z,1.30
2024-03-03T16:24:59.737Z,1.50
2024-03-03T16:27:32.733Z,2.00
2024-03-03T16:30:01.199Z,2.05
2024-03-03T16:32:29.708Z,1.40
2024-03-03T16:34:58.155Z,1.30
2024-03-03T16:37:26.810Z,1.40
2024-03-03T16:39:56.447Z,1.25
2024-03-03T16:42:25.151Z,1.52
2024-03-03T16:44:55.091Z,1.30
2024-03-03T16:47:23.640Z,1.27
2024-03-03T16:49:52.116Z,1.40
2024-03-03T16:52:20.668Z,1.30
2024-03-03T16:54:50.616Z,1.30
2024-03-03T16:57:19.323Z,1.60
2024-03-03T16:59:47.756Z,1.45
2024-03-03T17:02:17.609Z,2.00
2024-03-03T17:04:46.202Z,1.80
2024-03-03T17:07:14.780Z,1.73
2024-03-03T17:09:43.299Z,1.53
2024-03-03T17:12:11.768Z,1.48
2024-03-03T17:14:40.215Z,2.00
2024-03-03T17:17:08.881Z,1.85
2024-03-03T17:19:38.917Z,1.75
2024-03-03T17:22:07.541Z,1.40
2024-03-03T17:24:36.114Z,1.60
2024-03-03T17:27:04.884Z,1.75
2024-03-03T17:29:33.483Z,1.70
2024-03-03T17:32:01.926Z,1.80
2024-03-03T17:34:30.371Z,1.97
2024-03-03T17:37:00.355Z,1.65
2024-03-03T17:39:28.899Z,2.28
2024-03-03T17:41:57.407Z,1.70
2024-03-03T17:44:25.980Z,2.47
2024-03-03T17:46:54.357Z,1.80
2024-03-03T17:49:23.002Z,1.90
2024-03-03T17:51:51.552Z,1.92
2024-03-03T17:54:26.391Z,1.80
2024-03-03T17:56:54.893Z,1.80
2024-03-03T17:59:23.586Z,2.03
2024-03-03T18:01:52.214Z,2.00
2024-03-03T18:04:20.737Z,2.40
2024-03-03T18:06:49.277Z,2.13
2024-03-03T18:09:17.718Z,2.28
2024-03-03T18:11:47.733Z,2.00
2024-03-03T18:14:16.194Z,2.38
2024-03-03T18:16:44.744Z,2.72
2024-03-03T18:19:13.309Z,2.42
2024-03-03T18:21:45.494Z,2.83
2024-03-03T18:24:14.228Z,2.60
2024-03-03T18:26:43.213Z,3.00
2024-03-03T18:29:13.076Z,3.13
2024-03-03T18:31:41.956Z,2.72
2024-03-03T18:34:11.720Z,3.05
2024-03-03T18:36:40.271Z,3.60
2024-03-03T18:39:08.996Z,3.40
2024-03-03T18:41:37.458Z,3.25
2024-03-03T18:44:06.086Z,3.72
2024-03-03T18:46:36.443Z,4.50
2024-03-03T18:49:05.099Z,4.07
2024-03-03T18:51:34.484Z,4.03
2024-03-03T18:54:02.977Z,4.35
2024-03-03T18:56:31.412Z,7.57
2024-03-03T18:58:59.862Z,9.05
2024-03-03T19:01:28.401Z,7.13
2024-03-03T19:03:58.308Z,8.23
2024-03-03T19:06:26.784Z,9.55
2024-03-03T19:08:55.361Z,8.80
2024-03-03T19:11:23.895Z,7.95
2024-03-03T19:13:52.299Z,6.07
2024-03-03T19:16:23.262Z,5.45
2024-03-03T19:18:55.073Z,4.93
2024-03-03T19:21:24.925Z,4.18
2024-03-03T19:23:53.348Z,4.50
2024-03-03T19:26:21.846Z,4.03
2024-03-03T19:28:51.688Z,3.78
2024-03-03T19:31:23.225Z,4.13
2024-03-03T19:33:51.841Z,3.58
2024-03-03T19:36:20.362Z,3.20
2024-03-03T19:38:50.156Z,2.97
2024-03-03T19:41:19.520Z,2.72
2024-03-03T19:43:49.544Z,2.90
2024-03-03T19:46:18.081Z,2.95
2024-03-03T19:48:46.712Z,2.30
2024-03-03T19:51:25.323Z,2.73
2024-03-03T19:53:55.374Z,3.50
2024-03-03T19:56:23.849Z,3.90
2024-03-03T19:58:52.728Z,4.25
2024-03-03T20:01:21.412Z,4.80
2024-03-03T20:03:49.983Z,4.60
2024-03-03T20:06:18.637Z,4.10
2024-03-03T20:08:47.272Z,4.10
2024-03-03T20:11:17.258Z,3.72
2024-03-03T20:13:49.674Z,3.55
2024-03-03T20:16:20.882Z,3.53
2024-03-03T20:18:50.470Z,3.42
2024-03-03T20:21:19.141Z,3.15
2024-03-03T20:23:47.639Z,32.60
2024-03-03T20:26:17.672Z,15.80
2024-03-03T20:28:46.108Z,25.67
2024-03-03T20:31:14.789Z,53.40
2024-03-03T20:33:43.582Z,10.50
2024-03-03T20:36:14.499Z,5.15
2024-03-03T20:38:43.018Z,5.40
2024-03-03T20:41:12.411Z,4.80
2024-03-03T20:43:42.295Z,31.13
2024-03-03T20:46:11.046Z,51.25
2024-03-03T20:48:39.643Z,22.63
2024-03-03T20:51:08.670Z,32.45
2024-03-03T20:53:37.307Z,6.83
2024-03-03T20:56:06.669Z,35.88
2024-03-03T20:58:35.453Z,18.58
2024-03-03T21:01:05.627Z,22.73
2024-03-03T21:03:34.335Z,21.10
2024-03-03T21:06:04.008Z,8.03
2024-03-03T21:08:32.994Z,16.30
2024-03-03T21:11:01.647Z,21.17
2024-03-03T21:13:30.215Z,33.33
2024-03-03T21:15:58.841Z,30.05
2024-03-03T21:18:28.909Z,24.17
2024-03-03T21:20:57.454Z,11.38
2024-03-03T21:23:26.073Z,31.55
2024-03-03T21:25:55.076Z,11.77
2024-03-03T21:28:27.044Z,21.77
2024-03-03T21:30:55.675Z,10.53
2024-03-03T21:33:24.270Z,7.65
2024-03-03T21:35:54.088Z,19.58
2024-03-03T21:38:22.794Z,13.73
2024-03-03T21:40:51.378Z,15.88
2024-03-03T21:43:20.057Z,9.77
2024-03-03T21:45:48.554Z,8.98
2024-03-03T21:48:17.082Z,40.67
2024-03-03T21:50:45.596Z,9.05
2024-03-03T21:53:15.521Z,17.65
2024-03-03T21:55:45.626Z,8.00
2024-03-03T21:58:14.259Z,5.88
2024-03-03T22:00:42.707Z,4.80
2024-03-03T22:03:11.260Z,4.78
2024-03-03T22:05:39.768Z,5.05
2024-03-03T22:08:09.141Z,4.83
2024-03-03T22:10:39.146Z,4.45
2024-03-03T22:13:08.174Z,4.75
2024-03-03T22:15:36.830Z,4.80
2024-03-03T22:18:05.561Z,5.10
2024-03-03T22:20:33.985Z,5.17
2024-03-03T22:23:02.426Z,5.07
2024-03-03T22:25:30.956Z,5.18
2024-03-03T22:28:00.885Z,5.10
2024-03-03T22:30:28.353Z,5.00
2024-03-03T22:32:56.852Z,5.57
2024-03-03T22:35:25.354Z,4.45
2024-03-03T22:37:54.834Z,4.55
2024-03-03T22:40:23.307Z,4.43
2024-03-03T22:42:51.862Z,3.95
2024-03-03T22:45:21.985Z,4.30
2024-03-03T22:47:50.436Z,4.88
2024-03-03T22:50:18.971Z,5.00
2024-03-03T22:52:48.008Z,5.72
2024-03-03T22:55:16.578Z,4.72
2024-03-03T22:57:45.130Z,4.83
2024-03-03T23:00:15.261Z,4.35
2024-03-03T23:02:45.136Z,4.57
2024-03-03T23:05:13.767Z,4.40
2024-03-03T23:07:43.252Z,5.05
2024-03-03T23:10:12.474Z,4.43
2024-03-03T23:12:41.326Z,4.93
2024-03-03T23:15:10.843Z,4.53
2024-03-03T23:17:39.590Z,4.82
2024-03-03T23:20:10.493Z,4.35
2024-03-03T23:22:39.187Z,4.20
2024-03-03T23:25:07.906Z,4.72
2024-03-03T23:27:37.198Z,4.82
2024-03-03T23:30:08.205Z,4.25
2024-03-03T23:32:36.977Z,5.10
2024-03-03T23:35:08.752Z,4.50
2024-03-03T23:37:38.812Z,4.38
2024-03-03T23:40:07.956Z,5.03
2024-03-03T23:42:36.879Z,4.72
2024-03-03T23:45:05.543Z,4.80
2024-03-03T23:47:33.994Z,4.90
2024-03-03T23:50:02.522Z,4.97
2024-03-03T23:52:31.066Z,4.60
2024-03-03T23:55:01.114Z,3.97
2024-03-03T23:57:29.615Z,5.55
